sensor_id;sensor_type;location;lat;lon;timestamp;P1;durP1;ratioP1;P2;durP2;ratioP2
4575;SDS011;2300;51.874;8.430;2023-07-13T00:01:45;6.68;;;3.33;;
4575;SDS011;2300;51.874;8.430;2023-07-13T00:04:16;6.05;;;3.45;;
4575;SDS011;2300;51.874;8.430;2023-07-13T00:06:43;5.45;;;3.13;;
4575;SDS011;2300;51.874;8.430;2023-07-13T00:09:10;6.30;;;3.67;;
4575;SDS011;2300;51.874;8.430;2023-07-13T00:11:38;8.52;;;3.25;;
4575;SDS011;2300;51.874;8.430;2023-07-13T00:14:05;8.27;;;3.88;;
4575;SDS011;2300;51.874;8.430;2023-07-13T00:16:32;13.38;;;3.63;;
4575;SDS011;2300;51.874;8.430;2023-07-13T00:19:00;6.47;;;3.58;;
4575;SDS011;2300;51.874;8.430;2023-07-13T00:21:29;8.13;;;3.22;;
4575;SDS011;2300;51.874;8.430;2023-07-13T00:23:57;9.20;;;3.88;;
4575;SDS011;2300;51.874;8.430;2023-07-13T00:26:25;6.80;;;3.40;;
4575;SDS011;2300;51.874;8.430;2023-07-13T00:28:52;5.90;;;3.70;;
4575;SDS011;2300;51.874;8.430;2023-07-13T00:31:18;8.40;;;3.60;;
4575;SDS011;2300;51.874;8.430;2023-07-13T00:33:45;9.10;;;4.40;;
4575;SDS011;2300;51.874;8.430;2023-07-13T00:36:12;7.32;;;3.92;;
4575;SDS011;2300;51.874;8.430;2023-07-13T00:38:40;8.73;;;4.18;;
4575;SDS011;2300;51.874;8.430;2023-07-13T00:41:08;7.40;;;4.30;;
4575;SDS011;2300;51.874;8.430;2023-07-13T00:43:35;6.47;;;4.18;;
4575;SDS011;2300;51.874;8.430;2023-07-13T00:46:17;6.55;;;3.72;;
4575;SDS011;2300;51.874;8.430;2023-07-13T00:48:48;6.90;;;3.90;;
4575;SDS011;2300;51.874;8.430;2023-07-13T00:51:16;7.80;;;3.90;;
4575;SDS011;2300;51.874;8.430;2023-07-13T00:53:49;10.52;;;3.88;;
4575;SDS011;2300;51.874;8.430;2023-07-13T00:56:17;11.32;;;4.55;;
4575;SDS011;2300;51.874;8.430;2023-07-13T00:58:45;7.50;;;3.95;;
4575;SDS011;2300;51.874;8.430;2023-07-13T01:01:13;5.68;;;3.60;;
4575;SDS011;2300;51.874;8.430;2023-07-13T01:03:40;8.20;;;3.53;;
4575;SDS011;2300;51.874;8.430;2023-07-13T01:06:09;10.75;;;4.32;;
4575;SDS011;2300;51.874;8.430;2023-07-13T01:08:37;10.02;;;3.90;;
4575;SDS011;2300;51.874;8.430;2023-07-13T01:11:06;6.80;;;3.90;;
4575;SDS011;2300;51.874;8.430;2023-07-13T01:13:34;6.95;;;4.00;;
4575;SDS011;2300;51.874;8.430;2023-07-13T01:16:02;6.82;;;3.90;;
4575;SDS011;2300;51.874;8.430;2023-07-13T01:18:33;12.77;;;3.97;;
4575;SDS011;2300;51.874;8.430;2023-07-13T01:21:03;10.02;;;3.80;;
4575;SDS011;2300;51.874;8.430;2023-07-13T01:23:31;7.15;;;4.20;;
4575;SDS011;2300;51.874;8.430;2023-07-13T01:25:58;8.05;;;4.18;;
4575;SDS011;2300;51.874;8.430;2023-07-13T01:28:25;10.10;;;4.35;;
4575;SDS011;2300;51.874;8.430;2023-07-13T01:30:54;6.05;;;3.70;;
4575;SDS011;2300;51.874;8.430;2023-07-13T01:33:24;9.35;;;4.38;;
4575;SDS011;2300;51.874;8.430;2023-07-13T01:35:52;8.38;;;3.88;;
4575;SDS011;2300;51.874;8.430;2023-07-13T01:38:22;8.07;;;3.85;;
4575;SDS011;2300;51.874;8.430;2023-07-13T01:40:50;7.72;;;3.55;;
4575;SDS011;2300;51.874;8.430;2023-07-13T01:43:17;6.85;;;3.40;;
4575;SDS011;2300;51.874;8.430;2023-07-13T01:45:46;7.13;;;3.17;;
4575;SDS011;2300;51.874;8.430;2023-07-13T01:48:13;7.25;;;3.33;;
4575;SDS011;2300;51.874;8.430;2023-07-13T01:50:40;10.40;;;3.03;;
4575;SDS011;2300;51.874;8.430;2023-07-13T01:53:06;6.85;;;3.40;;
4575;SDS011;2300;51.874;8.430;2023-07-13T01:55:34;10.75;;;3.63;;
4575;SDS011;2300;51.874;8.430;2023-07-13T01:58:02;7.10;;;3.28;;
4575;SDS011;2300;51.874;8.430;2023-07-13T02:00:31;7.68;;;3.17;;
4575;SDS011;2300;51.874;8.430;2023-07-13T02:02:59;7.82;;;3.33;;
4575;SDS011;2300;51.874;8.430;2023-07-13T02:05:25;8.77;;;3.58;;
4575;SDS011;2300;51.874;8.430;2023-07-13T02:07:52;7.57;;;3.35;;
4575;SDS011;2300;51.874;8.430;2023-07-13T02:10:18;6.20;;;3.13;;
4575;SDS011;2300;51.874;8.430;2023-07-13T02:12:47;8.02;;;3.85;;
4575;SDS011;2300;51.874;8.430;2023-07-13T02:15:14;7.97;;;3.65;;
4575;SDS011;2300;51.874;8.430;2023-07-13T02:17:41;6.53;;;3.20;;
4575;SDS011;2300;51.874;8.430;2023-07-13T02:20:08;8.57;;;3.75;;
4575;SDS011;2300;51.874;8.430;2023-07-13T02:22:35;7.50;;;3.97;;
4575;SDS011;2300;51.874;8.430;2023-07-13T02:25:02;11.13;;;4.60;;
4575;SDS011;2300;51.874;8.430;2023-07-13T02:27:29;8.85;;;5.03;;
4575;SDS011;2300;51.874;8.430;2023-07-13T02:29:57;9.43;;;5.20;;
4575;SDS011;2300;51.874;8.430;2023-07-13T02:32:23;8.27;;;5.25;;
4575;SDS011;2300;51.874;8.430;2023-07-13T02:34:51;10.60;;;5.95;;
4575;SDS011;2300;51.874;8.430;2023-07-13T02:37:19;11.60;;;5.93;;
4575;SDS011;2300;51.874;8.430;2023-07-13T02:39:46;13.07;;;7.00;;
4575;SDS011;2300;51.874;8.430;2023-07-13T02:42:13;8.20;;;6.45;;
4575;SDS011;2300;51.874;8.430;2023-07-13T02:44:39;11.85;;;7.32;;
4575;SDS011;2300;51.874;8.430;2023-07-13T02:47:07;11.20;;;6.55;;
4575;SDS011;2300;51.874;8.430;2023-07-13T02:49:35;11.80;;;6.63;;
4575;SDS011;2300;51.874;8.430;2023-07-13T02:52:02;14.05;;;7.00;;
4575;SDS011;2300;51.874;8.430;2023-07-13T02:54:29;11.80;;;7.28;;
4575;SDS011;2300;51.874;8.430;2023-07-13T02:56:56;14.82;;;7.55;;
4575;SDS011;2300;51.874;8.430;2023-07-13T02:59:22;11.35;;;7.88;;
4575;SDS011;2300;51.874;8.430;2023-07-13T03:01:50;11.95;;;7.50;;
4575;SDS011;2300;51.874;8.430;2023-07-13T03:04:18;14.48;;;7.65;;
4575;SDS011;2300;51.874;8.430;2023-07-13T03:06:45;10.23;;;7.10;;
4575;SDS011;2300;51.874;8.430;2023-07-13T03:09:12;9.77;;;6.72;;
4575;SDS011;2300;51.874;8.430;2023-07-13T03:11:39;11.02;;;6.40;;
4575;SDS011;2300;51.874;8.430;2023-07-13T03:14:07;12.35;;;6.80;;
4575;SDS011;2300;51.874;8.430;2023-07-13T03:16:34;11.05;;;6.28;;
4575;SDS011;2300;51.874;8.430;2023-07-13T03:19:01;8.52;;;6.00;;
4575;SDS011;2300;51.874;8.430;2023-07-13T03:21:29;12.85;;;6.03;;
4575;SDS011;2300;51.874;8.430;2023-07-13T03:23:55;9.53;;;5.90;;
4575;SDS011;2300;51.874;8.430;2023-07-13T03:26:23;17.40;;;6.00;;
4575;SDS011;2300;51.874;8.430;2023-07-13T03:28:50;9.52;;;5.90;;
4575;SDS011;2300;51.874;8.430;2023-07-13T03:31:17;9.13;;;5.47;;
4575;SDS011;2300;51.874;8.430;2023-07-13T03:33:45;10.68;;;5.70;;
4575;SDS011;2300;51.874;8.430;2023-07-13T03:36:13;10.32;;;5.72;;
4575;SDS011;2300;51.874;8.430;2023-07-13T03:38:45;12.45;;;5.50;;
4575;SDS011;2300;51.874;8.430;2023-07-13T03:41:13;7.80;;;4.95;;
4575;SDS011;2300;51.874;8.430;2023-07-13T03:43:40;10.90;;;4.95;;
4575;SDS011;2300;51.874;8.430;2023-07-13T03:46:06;7.57;;;5.60;;
4575;SDS011;2300;51.874;8.430;2023-07-13T03:48:33;12.80;;;5.20;;
4575;SDS011;2300;51.874;8.430;2023-07-13T03:50:59;9.07;;;4.95;;
4575;SDS011;2300;51.874;8.430;2023-07-13T03:53:26;8.43;;;5.05;;
4575;SDS011;2300;51.874;8.430;2023-07-13T03:55:54;9.35;;;4.72;;
4575;SDS011;2300;51.874;8.430;2023-07-13T03:58:28;10.65;;;5.03;;
4575;SDS011;2300;51.874;8.430;2023-07-13T04:01:06;11.40;;;4.53;;
4575;SDS011;2300;51.874;8.430;2023-07-13T04:03:34;8.50;;;3.70;;
4575;SDS011;2300;51.874;8.430;2023-07-13T04:06:03;12.50;;;4.30;;
4575;SDS011;2300;51.874;8.430;2023-07-13T04:08:31;9.18;;;4.68;;
4575;SDS011;2300;51.874;8.430;2023-07-13T04:11:01;9.55;;;4.40;;
4575;SDS011;2300;51.874;8.430;2023-07-13T04:13:28;9.57;;;4.10;;
4575;SDS011;2300;51.874;8.430;2023-07-13T04:15:55;8.40;;;3.65;;
4575;SDS011;2300;51.874;8.430;2023-07-13T04:18:22;7.13;;;3.80;;
4575;SDS011;2300;51.874;8.430;2023-07-13T04:20:50;11.80;;;3.72;;
4575;SDS011;2300;51.874;8.430;2023-07-13T04:23:17;11.75;;;4.20;;
4575;SDS011;2300;51.874;8.430;2023-07-13T04:25:45;8.02;;;3.72;;
4575;SDS011;2300;51.874;8.430;2023-07-13T04:28:15;8.38;;;3.70;;
4575;SDS011;2300;51.874;8.430;2023-07-13T04:30:42;9.05;;;4.20;;
4575;SDS011;2300;51.874;8.430;2023-07-13T04:33:09;9.50;;;3.95;;
4575;SDS011;2300;51.874;8.430;2023-07-13T04:35:38;13.30;;;4.18;;
4575;SDS011;2300;51.874;8.430;2023-07-13T04:38:06;8.85;;;3.75;;
4575;SDS011;2300;51.874;8.430;2023-07-13T04:40:34;10.40;;;3.95;;
4575;SDS011;2300;51.874;8.430;2023-07-13T04:43:00;6.82;;;3.10;;
4575;SDS011;2300;51.874;8.430;2023-07-13T04:45:29;8.98;;;3.40;;
4575;SDS011;2300;51.874;8.430;2023-07-13T04:47:56;5.93;;;3.10;;
4575;SDS011;2300;51.874;8.430;2023-07-13T04:50:24;6.93;;;2.85;;
4575;SDS011;2300;51.874;8.430;2023-07-13T04:52:51;7.00;;;2.65;;
4575;SDS011;2300;51.874;8.430;2023-07-13T04:55:18;6.68;;;2.67;;
4575;SDS011;2300;51.874;8.430;2023-07-13T04:57:47;10.30;;;2.50;;
4575;SDS011;2300;51.874;8.430;2023-07-13T05:00:15;7.55;;;2.35;;
4575;SDS011;2300;51.874;8.430;2023-07-13T05:02:44;9.50;;;2.78;;
4575;SDS011;2300;51.874;8.430;2023-07-13T05:05:11;6.90;;;2.15;;
4575;SDS011;2300;51.874;8.430;2023-07-13T05:07:38;9.00;;;2.00;;
4575;SDS011;2300;51.874;8.430;2023-07-13T05:10:07;5.40;;;2.05;;
4575;SDS011;2300;51.874;8.430;2023-07-13T05:12:35;6.97;;;2.28;;
4575;SDS011;2300;51.874;8.430;2023-07-13T05:15:03;8.18;;;2.50;;
4575;SDS011;2300;51.874;8.430;2023-07-13T05:17:30;12.77;;;2.58;;
4575;SDS011;2300;51.874;8.430;2023-07-13T05:19:59;8.30;;;2.03;;
4575;SDS011;2300;51.874;8.430;2023-07-13T05:22:26;9.25;;;2.40;;
4575;SDS011;2300;51.874;8.430;2023-07-13T05:24:54;8.57;;;2.30;;
4575;SDS011;2300;51.874;8.430;2023-07-13T05:27:20;11.90;;;2.58;;
4575;SDS011;2300;51.874;8.430;2023-07-13T05:29:48;10.95;;;3.00;;
4575;SDS011;2300;51.874;8.430;2023-07-13T05:32:16;10.70;;;2.65;;
4575;SDS011;2300;51.874;8.430;2023-07-13T05:34:44;5.70;;;2.08;;
4575;SDS011;2300;51.874;8.430;2023-07-13T05:37:12;8.13;;;1.75;;
4575;SDS011;2300;51.874;8.430;2023-07-13T05:39:39;5.82;;;1.38;;
4575;SDS011;2300;51.874;8.430;2023-07-13T05:42:06;5.80;;;1.90;;
4575;SDS011;2300;51.874;8.430;2023-07-13T05:44:34;7.90;;;1.80;;
4575;SDS011;2300;51.874;8.430;2023-07-13T05:47:01;6.93;;;1.40;;
4575;SDS011;2300;51.874;8.430;2023-07-13T05:49:28;10.93;;;1.90;;
4575;SDS011;2300;51.874;8.430;2023-07-13T05:51:56;5.60;;;1.55;;
4575;SDS011;2300;51.874;8.430;2023-07-13T05:54:25;7.30;;;1.75;;
4575;SDS011;2300;51.874;8.430;2023-07-13T05:56:51;5.88;;;1.40;;
4575;SDS011;2300;51.874;8.430;2023-07-13T05:59:18;5.82;;;1.45;;
4575;SDS011;2300;51.874;8.430;2023-07-13T06:01:46;7.93;;;1.60;;
4575;SDS011;2300;51.874;8.430;2023-07-13T06:04:14;6.38;;;1.85;;
4575;SDS011;2300;51.874;8.430;2023-07-13T06:06:41;6.53;;;1.80;;
4575;SDS011;2300;51.874;8.430;2023-07-13T06:09:08;8.65;;;1.90;;
4575;SDS011;2300;51.874;8.430;2023-07-13T06:11:36;6.65;;;1.67;;
4575;SDS011;2300;51.874;8.430;2023-07-13T06:14:03;5.85;;;1.70;;
4575;SDS011;2300;51.874;8.430;2023-07-13T06:16:29;7.28;;;1.83;;
4575;SDS011;2300;51.874;8.430;2023-07-13T06:18:56;7.90;;;1.52;;
4575;SDS011;2300;51.874;8.430;2023-07-13T06:21:23;10.52;;;1.67;;
4575;SDS011;2300;51.874;8.430;2023-07-13T06:23:50;9.60;;;2.05;;
4575;SDS011;2300;51.874;8.430;2023-07-13T06:26:17;5.90;;;1.60;;
4575;SDS011;2300;51.874;8.430;2023-07-13T06:28:48;4.68;;;1.60;;
4575;SDS011;2300;51.874;8.430;2023-07-13T06:31:14;5.32;;;1.65;;
4575;SDS011;2300;51.874;8.430;2023-07-13T06:33:41;11.27;;;1.70;;
4575;SDS011;2300;51.874;8.430;2023-07-13T06:36:09;7.53;;;1.92;;
4575;SDS011;2300;51.874;8.430;2023-07-13T06:38:35;6.07;;;2.05;;
4575;SDS011;2300;51.874;8.430;2023-07-13T06:41:02;9.32;;;1.83;;
4575;SDS011;2300;51.874;8.430;2023-07-13T06:43:30;8.05;;;2.10;;
4575;SDS011;2300;51.874;8.430;2023-07-13T06:45:59;7.40;;;1.77;;
4575;SDS011;2300;51.874;8.430;2023-07-13T06:48:26;14.57;;;2.20;;
4575;SDS011;2300;51.874;8.430;2023-07-13T06:50:54;6.88;;;1.80;;
4575;SDS011;2300;51.874;8.430;2023-07-13T06:53:22;7.05;;;1.98;;
4575;SDS011;2300;51.874;8.430;2023-07-13T06:55:48;6.75;;;1.73;;
4575;SDS011;2300;51.874;8.430;2023-07-13T06:58:16;10.18;;;2.08;;
4575;SDS011;2300;51.874;8.430;2023-07-13T07:00:43;8.25;;;2.10;;
4575;SDS011;2300;51.874;8.430;2023-07-13T07:03:11;10.18;;;2.47;;
4575;SDS011;2300;51.874;8.430;2023-07-13T07:05:38;10.98;;;2.47;;
4575;SDS011;2300;51.874;8.430;2023-07-13T07:08:04;9.30;;;2.65;;
4575;SDS011;2300;51.874;8.430;2023-07-13T07:10:31;10.63;;;2.67;;
4575;SDS011;2300;51.874;8.430;2023-07-13T07:12:58;9.38;;;2.83;;
4575;SDS011;2300;51.874;8.430;2023-07-13T07:15:25;11.43;;;2.97;;
4575;SDS011;2300;51.874;8.430;2023-07-13T07:17:52;9.48;;;2.80;;
4575;SDS011;2300;51.874;8.430;2023-07-13T07:20:20;9.63;;;2.22;;
4575;SDS011;2300;51.874;8.430;2023-07-13T07:22:47;10.18;;;2.60;;
4575;SDS011;2300;51.874;8.430;2023-07-13T07:25:14;8.88;;;2.38;;
4575;SDS011;2300;51.874;8.430;2023-07-13T07:27:41;7.22;;;2.35;;
4575;SDS011;2300;51.874;8.430;2023-07-13T07:30:08;11.60;;;2.58;;
4575;SDS011;2300;51.874;8.430;2023-07-13T07:32:36;6.30;;;2.22;;
4575;SDS011;2300;51.874;8.430;2023-07-13T07:35:04;10.02;;;2.42;;
4575;SDS011;2300;51.874;8.430;2023-07-13T07:37:34;7.25;;;2.22;;
4575;SDS011;2300;51.874;8.430;2023-07-13T07:40:00;9.63;;;2.58;;
4575;SDS011;2300;51.874;8.430;2023-07-13T07:42:27;7.60;;;2.58;;
4575;SDS011;2300;51.874;8.430;2023-07-13T07:44:55;9.00;;;1.98;;
4575;SDS011;2300;51.874;8.430;2023-07-13T07:47:21;10.05;;;3.00;;
4575;SDS011;2300;51.874;8.430;2023-07-13T07:49:49;11.82;;;3.53;;
4575;SDS011;2300;51.874;8.430;2023-07-13T07:52:16;9.82;;;2.25;;
4575;SDS011;2300;51.874;8.430;2023-07-13T07:54:45;10.40;;;2.72;;
4575;SDS011;2300;51.874;8.430;2023-07-13T07:57:11;8.23;;;2.45;;
4575;SDS011;2300;51.874;8.430;2023-07-13T07:59:38;12.45;;;2.75;;
4575;SDS011;2300;51.874;8.430;2023-07-13T08:02:05;10.27;;;2.45;;
4575;SDS011;2300;51.874;8.430;2023-07-13T08:04:32;9.45;;;2.70;;
4575;SDS011;2300;51.874;8.430;2023-07-13T08:06:58;10.50;;;2.80;;
4575;SDS011;2300;51.874;8.430;2023-07-13T08:09:27;8.75;;;2.78;;
4575;SDS011;2300;51.874;8.430;2023-07-13T08:11:56;8.73;;;2.60;;
4575;SDS011;2300;51.874;8.430;2023-07-13T08:14:24;9.93;;;2.28;;
4575;SDS011;2300;51.874;8.430;2023-07-13T08:16:50;11.07;;;2.78;;
4575;SDS011;2300;51.874;8.430;2023-07-13T08:19:18;8.88;;;2.70;;
4575;SDS011;2300;51.874;8.430;2023-07-13T08:21:45;7.40;;;2.53;;
4575;SDS011;2300;51.874;8.430;2023-07-13T08:24:13;7.95;;;2.13;;
4575;SDS011;2300;51.874;8.430;2023-07-13T08:26:43;6.32;;;2.53;;
4575;SDS011;2300;51.874;8.430;2023-07-13T08:29:11;8.70;;;2.50;;
4575;SDS011;2300;51.874;8.430;2023-07-13T08:31:38;8.35;;;2.58;;
4575;SDS011;2300;51.874;8.430;2023-07-13T08:34:05;7.60;;;2.35;;
4575;SDS011;2300;51.874;8.430;2023-07-13T08:36:34;7.57;;;2.20;;
4575;SDS011;2300;51.874;8.430;2023-07-13T08:39:01;7.60;;;2.10;;
4575;SDS011;2300;51.874;8.430;2023-07-13T08:41:28;7.30;;;2.40;;
4575;SDS011;2300;51.874;8.430;2023-07-13T08:43:56;7.10;;;2.13;;
4575;SDS011;2300;51.874;8.430;2023-07-13T08:46:28;12.85;;;2.72;;
4575;SDS011;2300;51.874;8.430;2023-07-13T08:48:59;8.00;;;2.22;;
4575;SDS011;2300;51.874;8.430;2023-07-13T08:51:34;6.43;;;1.85;;
4575;SDS011;2300;51.874;8.430;2023-07-13T08:54:17;8.82;;;2.50;;
4575;SDS011;2300;51.874;8.430;2023-07-13T08:56:48;6.85;;;1.90;;
4575;SDS011;2300;51.874;8.430;2023-07-13T08:59:18;9.23;;;2.25;;
4575;SDS011;2300;51.874;8.430;2023-07-13T09:01:56;10.48;;;2.17;;
4575;SDS011;2300;51.874;8.430;2023-07-13T09:04:40;6.80;;;2.10;;
4575;SDS011;2300;51.874;8.430;2023-07-13T09:07:17;8.85;;;2.03;;
4575;SDS011;2300;51.874;8.430;2023-07-13T09:09:55;6.53;;;2.10;;
4575;SDS011;2300;51.874;8.430;2023-07-13T09:12:31;8.10;;;2.50;;
4575;SDS011;2300;51.874;8.430;2023-07-13T09:15:10;7.63;;;1.90;;
4575;SDS011;2300;51.874;8.430;2023-07-13T09:17:51;6.75;;;2.20;;
4575;SDS011;2300;51.874;8.430;2023-07-13T09:20:23;10.10;;;2.22;;
4575;SDS011;2300;51.874;8.430;2023-07-13T09:22:57;8.50;;;2.30;;
4575;SDS011;2300;51.874;8.430;2023-07-13T09:25:29;7.90;;;2.33;;
4575;SDS011;2300;51.874;8.430;2023-07-13T09:27:58;5.97;;;2.17;;
4575;SDS011;2300;51.874;8.430;2023-07-13T09:30:32;9.00;;;2.60;;
4575;SDS011;2300;51.874;8.430;2023-07-13T09:33:04;5.85;;;2.40;;
4575;SDS011;2300;51.874;8.430;2023-07-13T09:35:31;7.72;;;2.47;;
4575;SDS011;2300;51.874;8.430;2023-07-13T09:37:59;5.65;;;2.60;;
4575;SDS011;2300;51.874;8.430;2023-07-13T09:40:33;4.07;;;2.40;;
4575;SDS011;2300;51.874;8.430;2023-07-13T09:43:05;9.75;;;3.00;;
4575;SDS011;2300;51.874;8.430;2023-07-13T09:45:37;8.02;;;2.72;;
4575;SDS011;2300;51.874;8.430;2023-07-13T09:48:06;6.60;;;3.00;;
4575;SDS011;2300;51.874;8.430;2023-07-13T09:50:38;8.25;;;2.88;;
4575;SDS011;2300;51.874;8.430;2023-07-13T09:53:09;7.05;;;2.70;;
4575;SDS011;2300;51.874;8.430;2023-07-13T09:55:38;7.22;;;3.10;;
4575;SDS011;2300;51.874;8.430;2023-07-13T09:58:08;8.50;;;3.55;;
4575;SDS011;2300;51.874;8.430;2023-07-13T10:00:37;8.38;;;2.78;;
4575;SDS011;2300;51.874;8.430;2023-07-13T10:03:13;8.65;;;3.13;;
4575;SDS011;2300;51.874;8.430;2023-07-13T10:05:43;6.30;;;3.30;;
4575;SDS011;2300;51.874;8.430;2023-07-13T10:08:21;9.77;;;3.70;;
4575;SDS011;2300;51.874;8.430;2023-07-13T10:10:53;8.02;;;3.00;;
4575;SDS011;2300;51.874;8.430;2023-07-13T10:13:26;8.18;;;3.33;;
4575;SDS011;2300;51.874;8.430;2023-07-13T10:15:57;8.40;;;3.05;;
4575;SDS011;2300;51.874;8.430;2023-07-13T10:18:27;7.82;;;3.00;;
4575;SDS011;2300;51.874;8.430;2023-07-13T10:20:59;6.97;;;3.22;;
4575;SDS011;2300;51.874;8.430;2023-07-13T10:23:37;7.20;;;3.00;;
4575;SDS011;2300;51.874;8.430;2023-07-13T10:26:04;9.02;;;3.20;;
4575;SDS011;2300;51.874;8.430;2023-07-13T10:28:36;7.03;;;3.15;;
4575;SDS011;2300;51.874;8.430;2023-07-13T10:31:04;6.97;;;2.90;;
4575;SDS011;2300;51.874;8.430;2023-07-13T10:33:42;8.45;;;2.95;;
4575;SDS011;2300;51.874;8.430;2023-07-13T10:36:12;5.57;;;2.55;;
4575;SDS011;2300;51.874;8.430;2023-07-13T10:38:43;6.63;;;2.22;;
4575;SDS011;2300;51.874;8.430;2023-07-13T10:41:14;6.13;;;2.13;;
4575;SDS011;2300;51.874;8.430;2023-07-13T10:43:45;5.38;;;2.10;;
4575;SDS011;2300;51.874;8.430;2023-07-13T10:46:17;5.88;;;2.03;;
4575;SDS011;2300;51.874;8.430;2023-07-13T10:48:48;7.70;;;1.98;;
4575;SDS011;2300;51.874;8.430;2023-07-13T10:51:19;4.63;;;1.90;;
4575;SDS011;2300;51.874;8.430;2023-07-13T10:53:48;7.60;;;2.05;;
4575;SDS011;2300;51.874;8.430;2023-07-13T10:56:42;3.70;;;2.08;;
4575;SDS011;2300;51.874;8.430;2023-07-13T10:59:11;5.65;;;1.92;;
4575;SDS011;2300;51.874;8.430;2023-07-13T11:01:46;5.55;;;1.92;;
4575;SDS011;2300;51.874;8.430;2023-07-13T11:04:19;5.72;;;1.80;;
4575;SDS011;2300;51.874;8.430;2023-07-13T11:06:48;5.63;;;2.00;;
4575;SDS011;2300;51.874;8.430;2023-07-13T11:09:32;5.03;;;1.92;;
4575;SDS011;2300;51.874;8.430;2023-07-13T11:12:03;5.22;;;1.52;;
4575;SDS011;2300;51.874;8.430;2023-07-13T11:14:35;4.90;;;1.88;;
4575;SDS011;2300;51.874;8.430;2023-07-13T11:20:19;4.70;;;1.80;;
4575;SDS011;2300;51.874;8.430;2023-07-13T11:23:07;9.82;;;1.60;;
4575;SDS011;2300;51.874;8.430;2023-07-13T11:25:42;5.30;;;1.88;;
4575;SDS011;2300;51.874;8.430;2023-07-13T11:28:17;5.80;;;1.70;;
4575;SDS011;2300;51.874;8.430;2023-07-13T11:30:48;5.80;;;1.75;;
4575;SDS011;2300;51.874;8.430;2023-07-13T11:33:19;4.80;;;1.75;;
4575;SDS011;2300;51.874;8.430;2023-07-13T11:36:00;4.07;;;1.58;;
4575;SDS011;2300;51.874;8.430;2023-07-13T11:38:32;5.00;;;1.48;;
4575;SDS011;2300;51.874;8.430;2023-07-13T11:41:04;6.00;;;1.80;;
4575;SDS011;2300;51.874;8.430;2023-07-13T11:43:33;5.20;;;2.00;;
4575;SDS011;2300;51.874;8.430;2023-07-13T11:48:45;8.00;;;2.00;;
4575;SDS011;2300;51.874;8.430;2023-07-13T11:51:17;5.25;;;1.92;;
4575;SDS011;2300;51.874;8.430;2023-07-13T11:53:49;5.57;;;1.80;;
4575;SDS011;2300;51.874;8.430;2023-07-13T11:56:18;6.15;;;1.85;;
4575;SDS011;2300;51.874;8.430;2023-07-13T11:58:48;6.38;;;2.20;;
4575;SDS011;2300;51.874;8.430;2023-07-13T12:01:18;5.43;;;1.90;;
4575;SDS011;2300;51.874;8.430;2023-07-13T12:03:48;7.78;;;2.30;;
4575;SDS011;2300;51.874;8.430;2023-07-13T12:06:21;6.82;;;2.20;;
4575;SDS011;2300;51.874;8.430;2023-07-13T12:08:55;6.78;;;2.42;;
4575;SDS011;2300;51.874;8.430;2023-07-13T12:11:25;5.10;;;2.15;;
4575;SDS011;2300;51.874;8.430;2023-07-13T12:13:52;8.07;;;2.00;;
4575;SDS011;2300;51.874;8.430;2023-07-13T12:16:22;5.50;;;2.10;;
4575;SDS011;2300;51.874;8.430;2023-07-13T12:18:55;5.82;;;2.63;;
4575;SDS011;2300;51.874;8.430;2023-07-13T12:21:25;4.30;;;1.85;;
4575;SDS011;2300;51.874;8.430;2023-07-13T12:23:56;4.40;;;2.50;;
4575;SDS011;2300;51.874;8.430;2023-07-13T12:26:23;5.57;;;2.45;;
4575;SDS011;2300;51.874;8.430;2023-07-13T12:28:53;9.43;;;2.65;;
4575;SDS011;2300;51.874;8.430;2023-07-13T12:31:26;5.15;;;2.50;;
4575;SDS011;2300;51.874;8.430;2023-07-13T12:33:58;6.65;;;2.90;;
4575;SDS011;2300;51.874;8.430;2023-07-13T12:36:26;6.47;;;2.60;;
4575;SDS011;2300;51.874;8.430;2023-07-13T12:38:54;6.50;;;2.25;;
4575;SDS011;2300;51.874;8.430;2023-07-13T12:41:23;5.30;;;2.47;;
4575;SDS011;2300;51.874;8.430;2023-07-13T12:43:50;5.82;;;2.78;;
4575;SDS011;2300;51.874;8.430;2023-07-13T12:46:21;8.63;;;3.25;;
4575;SDS011;2300;51.874;8.430;2023-07-13T12:48:54;5.95;;;2.75;;
4575;SDS011;2300;51.874;8.430;2023-07-13T12:51:21;7.30;;;2.67;;
4575;SDS011;2300;51.874;8.430;2023-07-13T12:53:50;7.63;;;2.80;;
4575;SDS011;2300;51.874;8.430;2023-07-13T12:56:23;7.07;;;2.80;;
4575;SDS011;2300;51.874;8.430;2023-07-13T12:58:56;8.27;;;2.92;;
4575;SDS011;2300;51.874;8.430;2023-07-13T13:01:26;5.57;;;2.85;;
4575;SDS011;2300;51.874;8.430;2023-07-13T13:03:54;5.05;;;2.42;;
4575;SDS011;2300;51.874;8.430;2023-07-13T13:06:23;4.75;;;2.55;;
4575;SDS011;2300;51.874;8.430;2023-07-13T13:08:53;4.75;;;2.05;;
4575;SDS011;2300;51.874;8.430;2023-07-13T13:11:23;5.35;;;1.92;;
4575;SDS011;2300;51.874;8.430;2023-07-13T13:13:51;5.43;;;1.98;;
4575;SDS011;2300;51.874;8.430;2023-07-13T13:16:20;6.10;;;2.15;;
4575;SDS011;2300;51.874;8.430;2023-07-13T13:18:50;4.20;;;1.92;;
4575;SDS011;2300;51.874;8.430;2023-07-13T13:21:18;4.20;;;2.00;;
4575;SDS011;2300;51.874;8.430;2023-07-13T13:23:45;6.32;;;2.08;;
4575;SDS011;2300;51.874;8.430;2023-07-13T13:26:13;5.30;;;2.30;;
4575;SDS011;2300;51.874;8.430;2023-07-13T13:28:41;10.98;;;2.78;;
4575;SDS011;2300;51.874;8.430;2023-07-13T13:31:09;7.05;;;2.03;;
4575;SDS011;2300;51.874;8.430;2023-07-13T13:33:38;5.30;;;2.00;;
4575;SDS011;2300;51.874;8.430;2023-07-13T13:36:14;6.20;;;1.95;;
4575;SDS011;2300;51.874;8.430;2023-07-13T13:38:42;5.55;;;1.95;;
4575;SDS011;2300;51.874;8.430;2023-07-13T13:41:10;6.57;;;2.22;;
4575;SDS011;2300;51.874;8.430;2023-07-13T13:43:38;8.98;;;2.58;;
4575;SDS011;2300;51.874;8.430;2023-07-13T13:46:11;7.13;;;2.10;;
4575;SDS011;2300;51.874;8.430;2023-07-13T13:48:42;5.43;;;2.15;;
4575;SDS011;2300;51.874;8.430;2023-07-13T13:51:12;6.53;;;2.40;;
4575;SDS011;2300;51.874;8.430;2023-07-13T13:53:42;8.57;;;2.20;;
4575;SDS011;2300;51.874;8.430;2023-07-13T13:56:10;5.88;;;2.50;;
4575;SDS011;2300;51.874;8.430;2023-07-13T13:58:37;5.47;;;2.33;;
4575;SDS011;2300;51.874;8.430;2023-07-13T14:01:03;5.90;;;2.30;;
4575;SDS011;2300;51.874;8.430;2023-07-13T14:03:33;7.20;;;2.20;;
4575;SDS011;2300;51.874;8.430;2023-07-13T14:06:01;5.68;;;2.55;;
4575;SDS011;2300;51.874;8.430;2023-07-13T14:08:29;5.80;;;1.98;;
4575;SDS011;2300;51.874;8.430;2023-07-13T14:10:56;5.40;;;2.30;;
4575;SDS011;2300;51.874;8.430;2023-07-13T14:13:25;6.95;;;2.60;;
4575;SDS011;2300;51.874;8.430;2023-07-13T14:15:54;7.47;;;2.42;;
4575;SDS011;2300;51.874;8.430;2023-07-13T14:18:21;9.68;;;2.90;;
4575;SDS011;2300;51.874;8.430;2023-07-13T14:20:49;6.32;;;2.83;;
4575;SDS011;2300;51.874;8.430;2023-07-13T14:23:17;6.30;;;3.25;;
4575;SDS011;2300;51.874;8.430;2023-07-13T14:25:46;7.07;;;3.20;;
4575;SDS011;2300;51.874;8.430;2023-07-13T14:28:22;12.45;;;4.32;;
4575;SDS011;2300;51.874;8.430;2023-07-13T14:30:50;7.05;;;4.20;;
4575;SDS011;2300;51.874;8.430;2023-07-13T14:33:17;8.73;;;3.80;;
4575;SDS011;2300;51.874;8.430;2023-07-13T14:35:44;7.43;;;4.00;;
4575;SDS011;2300;51.874;8.430;2023-07-13T14:38:11;10.32;;;3.60;;
4575;SDS011;2300;51.874;8.430;2023-07-13T14:40:40;7.35;;;4.07;;
4575;SDS011;2300;51.874;8.430;2023-07-13T14:43:10;7.70;;;3.97;;
4575;SDS011;2300;51.874;8.430;2023-07-13T14:45:39;7.05;;;3.63;;
4575;SDS011;2300;51.874;8.430;2023-07-13T14:48:15;9.07;;;3.38;;
4575;SDS011;2300;51.874;8.430;2023-07-13T14:50:44;6.40;;;3.35;;
4575;SDS011;2300;51.874;8.430;2023-07-13T14:53:12;8.05;;;3.25;;
4575;SDS011;2300;51.874;8.430;2023-07-13T14:55:39;4.95;;;2.70;;
4575;SDS011;2300;51.874;8.430;2023-07-13T14:58:07;6.00;;;2.85;;
4575;SDS011;2300;51.874;8.430;2023-07-13T15:00:37;4.50;;;2.60;;
4575;SDS011;2300;51.874;8.430;2023-07-13T15:03:04;6.35;;;2.83;;
4575;SDS011;2300;51.874;8.430;2023-07-13T15:05:31;6.63;;;2.55;;
4575;SDS011;2300;51.874;8.430;2023-07-13T15:08:00;6.45;;;3.05;;
4575;SDS011;2300;51.874;8.430;2023-07-13T15:10:28;7.50;;;4.10;;
4575;SDS011;2300;51.874;8.430;2023-07-13T15:12:58;7.22;;;4.55;;
4575;SDS011;2300;51.874;8.430;2023-07-13T15:15:28;8.75;;;4.28;;
4575;SDS011;2300;51.874;8.430;2023-07-13T15:17:57;7.28;;;4.68;;
4575;SDS011;2300;51.874;8.430;2023-07-13T15:20:25;9.45;;;4.70;;
4575;SDS011;2300;51.874;8.430;2023-07-13T15:22:54;7.55;;;4.13;;
4575;SDS011;2300;51.874;8.430;2023-07-13T15:25:24;7.03;;;4.70;;
4575;SDS011;2300;51.874;8.430;2023-07-13T15:27:52;7.97;;;4.53;;
4575;SDS011;2300;51.874;8.430;2023-07-13T15:30:20;10.60;;;4.50;;